Time;durP1;ratioP1;P1;durP2;ratioP2;P2;SDS_P1;SDS_P2;PMS_P1;PMS_P2;Temp;Humidity;BMP_temperature;BMP_pressure;BME280_temperature;BME280_humidity;BME280_pressure;Samples;Min_cycle;Max_cycle;Signal;HPM_P1;HPM_P2
2022/07/12 00:02:17;;;;;;;4.22;3.55;;;;;;;;;;5068470;28;20497;-71
2022/07/12 00:04:44;;;;;;;7.00;3.63;;;;;;;;;;5068890;28;20412;-71
2022/07/12 00:07:10;;;;;;;8.55;3.45;;;;;;;;;;5069850;28;20036;-71
2022/07/12 00:09:36;;;;;;;11.93;3.95;;;;;;;;;;5070496;28;20529;-71
2022/07/12 00:12:03;;;;;;;6.40;3.63;;;;;;;;;;5068671;28;20032;-71
2022/07/12 00:14:29;;;;;;;7.18;3.30;;;;;;;;;;5068364;28;20035;-71
2022/07/12 00:16:56;;;;;;;6.32;3.50;;;;;;;;;;5068473;28;20025;-71
2022/07/12 00:19:22;;;;;;;6.20;3.70;;;;;;;;;;5068542;28;20027;-71
2022/07/12 00:21:48;;;;;;;4.63;3.10;;;;;;;;;;5071571;28;20029;-71
2022/07/12 00:24:15;;;;;;;6.22;3.70;;;;;;;;;;5068780;28;20023;-71
2022/07/12 00:26:41;;;;;;;5.35;3.47;;;;;;;;;;5068424;28;20025;-71
2022/07/12 00:29:08;;;;;;;6.20;3.28;;;;;;;;;;5068448;28;20384;-71
2022/07/12 00:31:34;;;;;;;4.25;3.15;;;;;;;;;;5068483;28;20246;-71
2022/07/12 00:34:00;;;;;;;5.50;3.45;;;;;;;;;;5070837;28;20029;-71
2022/07/12 00:36:27;;;;;;;6.50;3.10;;;;;;;;;;5085036;28;20040;-71
2022/07/12 00:38:53;;;;;;;6.05;3.25;;;;;;;;;;5068101;28;20021;-71
2022/07/12 00:41:20;;;;;;;7.35;3.65;;;;;;;;;;5068330;28;20039;-71
2022/07/12 00:43:46;;;;;;;7.75;3.60;;;;;;;;;;5067494;28;20025;-71
2022/07/12 00:46:14;;;;;;;6.05;3.75;;;;;;;;;;5069580;28;20024;-71
2022/07/12 00:48:40;;;;;;;6.50;3.53;;;;;;;;;;5070880;28;20358;-70
2022/07/12 00:51:07;;;;;;;5.30;3.53;;;;;;;;;;5067791;28;20039;-71
2022/07/12 00:53:33;;;;;;;7.93;3.92;;;;;;;;;;5068112;28;20167;-71
2022/07/12 00:55:59;;;;;;;10.10;3.90;;;;;;;;;;5072283;28;20024;-71
2022/07/12 00:58:27;;;;;;;7.78;3.15;;;;;;;;;;5072386;28;20021;-71
2022/07/12 01:00:55;;;;;;;7.05;3.80;;;;;;;;;;5074206;28;20025;-71
2022/07/12 01:03:21;;;;;;;6.57;3.67;;;;;;;;;;5073120;28;20017;-71
2022/07/12 01:05:48;;;;;;;4.95;3.85;;;;;;;;;;5071904;28;20036;-71
2022/07/12 01:08:15;;;;;;;6.10;4.00;;;;;;;;;;5071853;28;20032;-71
2022/07/12 01:10:44;;;;;;;4.80;3.65;;;;;;;;;;5072179;28;20501;-71
2022/07/12 01:13:10;;;;;;;6.57;3.85;;;;;;;;;;5072994;28;20033;-71
2022/07/12 01:15:37;;;;;;;5.47;4.00;;;;;;;;;;5073858;28;20397;-71
2022/07/12 01:18:04;;;;;;;7.47;3.97;;;;;;;;;;5072252;28;20012;-71
2022/07/12 01:20:31;;;;;;;7.50;4.43;;;;;;;;;;5071410;28;20410;-71
2022/07/12 01:22:58;;;;;;;7.82;4.00;;;;;;;;;;5071950;28;20012;-71
2022/07/12 01:25:24;;;;;;;7.18;3.83;;;;;;;;;;5071875;28;20021;-71
2022/07/12 01:27:51;;;;;;;6.28;3.53;;;;;;;;;;5074674;28;20029;-70
2022/07/12 01:30:18;;;;;;;4.07;3.45;;;;;;;;;;5071686;28;20044;-71
2022/07/12 01:32:44;;;;;;;5.82;3.60;;;;;;;;;;5071626;28;20028;-71
2022/07/12 01:35:11;;;;;;;5.90;3.90;;;;;;;;;;5070942;28;20035;-71
2022/07/12 01:37:38;;;;;;;4.97;3.53;;;;;;;;;;5071322;28;20021;-70
2022/07/12 01:40:06;;;;;;;5.32;3.72;;;;;;;;;;5074100;28;20035;-71
2022/07/12 01:42:32;;;;;;;7.82;3.95;;;;;;;;;;5072669;28;20024;-71
2022/07/12 01:44:59;;;;;;;5.40;3.78;;;;;;;;;;5071168;28;20032;-71
2022/07/12 01:47:27;;;;;;;5.93;3.47;;;;;;;;;;5071237;28;20489;-71
2022/07/12 01:49:53;;;;;;;7.05;3.90;;;;;;;;;;5070649;28;20117;-71
2022/07/12 01:52:20;;;;;;;5.50;4.13;;;;;;;;;;5070920;28;20553;-70
2022/07/12 01:54:47;;;;;;;5.55;4.18;;;;;;;;;;5074851;28;20046;-71
2022/07/12 01:57:14;;;;;;;5.35;4.15;;;;;;;;;;5070856;28;20389;-71
2022/07/12 01:59:41;;;;;;;6.40;4.00;;;;;;;;;;5070890;28;20027;-71
2022/07/12 02:02:07;;;;;;;4.85;4.32;;;;;;;;;;5070741;28;20027;-71
2022/07/12 02:04:34;;;;;;;6.30;4.75;;;;;;;;;;5070381;28;20024;-71
2022/07/12 02:07:01;;;;;;;6.75;4.63;;;;;;;;;;5072817;28;20039;-71
2022/07/12 02:09:28;;;;;;;11.07;4.22;;;;;;;;;;5071586;28;20046;-69
2022/07/12 02:11:54;;;;;;;9.57;4.22;;;;;;;;;;5070973;28;20026;-69
2022/07/12 02:14:21;;;;;;;4.53;3.97;;;;;;;;;;5070583;28;20027;-70
2022/07/12 02:16:47;;;;;;;4.28;3.88;;;;;;;;;;5070383;28;20011;-71
2022/07/12 02:19:14;;;;;;;5.50;4.30;;;;;;;;;;5071669;28;20412;-70
2022/07/12 02:21:40;;;;;;;7.55;3.67;;;;;;;;;;5072918;28;20023;-70
2022/07/12 02:24:07;;;;;;;8.45;4.40;;;;;;;;;;5070567;28;20047;-71
2022/07/12 02:26:34;;;;;;;4.80;4.40;;;;;;;;;;5070515;28;20031;-71
2022/07/12 02:29:01;;;;;;;5.78;4.30;;;;;;;;;;5070501;28;20025;-70
2022/07/12 02:31:28;;;;;;;5.50;4.35;;;;;;;;;;5069492;28;20037;-71
2022/07/12 02:33:54;;;;;;;6.25;4.20;;;;;;;;;;5071523;28;20434;-70
2022/07/12 02:36:21;;;;;;;6.35;4.05;;;;;;;;;;5070914;28;20024;-71
2022/07/12 02:38:48;;;;;;;9.45;4.07;;;;;;;;;;5070210;28;20019;-71
2022/07/12 02:41:14;;;;;;;5.43;3.85;;;;;;;;;;5070121;28;20034;-70
2022/07/12 02:43:40;;;;;;;4.70;4.00;;;;;;;;;;5070318;28;20029;-71
2022/07/12 02:46:11;;;;;;;7.28;4.45;;;;;;;;;;5071789;28;20021;-71
2022/07/12 02:48:37;;;;;;;;;;;;;;;;;;5072781;28;20382;-70
2022/07/12 02:51:04;;;;;;;7.45;4.03;;;;;;;;;;5069855;28;19912;-70
2022/07/12 02:53:32;;;;;;;5.80;3.95;;;;;;;;;;5069899;28;20017;-71
2022/07/12 02:55:58;;;;;;;8.55;4.28;;;;;;;;;;5069789;28;20034;-71
2022/07/12 02:58:24;;;;;;;7.25;4.30;;;;;;;;;;5070074;28;20021;-71
2022/07/12 03:00:51;;;;;;;5.72;4.20;;;;;;;;;;5072562;28;20027;-70
2022/07/12 03:03:17;;;;;;;7.45;4.40;;;;;;;;;;5071560;28;20039;-71
2022/07/12 03:05:44;;;;;;;6.38;4.20;;;;;;;;;;5069547;28;20054;-70
2022/07/12 03:08:11;;;;;;;7.07;4.63;;;;;;;;;;5069436;28;20032;-71
2022/07/12 03:10:37;;;;;;;5.95;4.20;;;;;;;;;;5069125;28;20036;-70
2022/07/12 03:13:04;;;;;;;5.85;4.30;;;;;;;;;;5071800;28;20051;-71
2022/07/12 03:15:31;;;;;;;9.50;4.50;;;;;;;;;;5070308;28;20021;-72
2022/07/12 03:17:58;;;;;;;5.72;4.10;;;;;;;;;;5069307;28;20027;-71
2022/07/12 03:20:24;;;;;;;8.77;5.07;;;;;;;;;;5069280;28;20027;-71
2022/07/12 03:22:54;;;;;;;7.82;4.43;;;;;;;;;;5069199;28;20416;-71
2022/07/12 03:25:21;;;;;;;6.72;4.57;;;;;;;;;;5053922;28;20020;-71
2022/07/12 03:27:47;;;;;;;4.65;4.03;;;;;;;;;;5072621;28;20029;-71
2022/07/12 03:30:14;;;;;;;7.47;4.82;;;;;;;;;;5068647;28;20043;-71
2022/07/12 03:32:40;;;;;;;7.10;4.85;;;;;;;;;;5069127;28;20020;-71
2022/07/12 03:35:07;;;;;;;5.68;4.43;;;;;;;;;;5069033;28;20027;-71
2022/07/12 03:37:43;;;;;;;5.07;4.13;;;;;;;;;;5069042;28;20050;-71
2022/07/12 03:40:10;;;;;;;7.03;4.38;;;;;;;;;;5070631;28;20393;-71
2022/07/12 03:42:36;;;;;;;6.10;4.20;;;;;;;;;;5070889;28;20451;-70
2022/07/12 03:45:03;;;;;;;5.43;4.30;;;;;;;;;;5068565;28;20024;-71
2022/07/12 03:47:31;;;;;;;7.47;4.70;;;;;;;;;;5068919;28;20208;-71
2022/07/12 03:49:57;;;;;;;4.80;4.35;;;;;;;;;;5068467;28;20396;-71
2022/07/12 03:52:24;;;;;;;6.30;4.50;;;;;;;;;;5068191;28;20028;-71
2022/07/12 03:54:50;;;;;;;5.75;5.10;;;;;;;;;;5072207;28;20024;-71
2022/07/12 03:57:17;;;;;;;6.25;4.63;;;;;;;;;;5070468;28;20035;-71
2022/07/12 03:59:43;;;;;;;5.20;4.57;;;;;;;;;;5068320;28;20367;-71
2022/07/12 04:02:10;;;;;;;6.30;4.63;;;;;;;;;;5068556;28;20023;-71
2022/07/12 04:04:36;;;;;;;6.22;4.82;;;;;;;;;;5068641;28;20028;-71
2022/07/12 04:07:03;;;;;;;9.38;5.05;;;;;;;;;;5071054;28;20078;-71
2022/07/12 04:09:29;;;;;;;6.88;4.53;;;;;;;;;;5069508;28;20051;-71
2022/07/12 04:11:55;;;;;;;6.22;4.60;;;;;;;;;;5068405;28;20393;-71
2022/07/12 04:14:22;;;;;;;6.43;4.88;;;;;;;;;;5068279;28;20012;-71
2022/07/12 04:16:48;;;;;;;6.97;4.85;;;;;;;;;;5068607;28;20039;-71
2022/07/12 04:19:15;;;;;;;6.60;4.82;;;;;;;;;;5069646;28;20017;-70
2022/07/12 04:21:41;;;;;;;8.30;4.70;;;;;;;;;;5071126;28;20019;-71
2022/07/12 04:24:07;;;;;;;9.10;4.65;;;;;;;;;;5068516;28;20020;-71
2022/07/12 04:26:34;;;;;;;6.47;4.47;;;;;;;;;;5068758;28;20039;-71
2022/07/12 04:29:00;;;;;;;6.85;4.68;;;;;;;;;;5067433;28;20535;-71
2022/07/12 04:31:26;;;;;;;6.22;4.82;;;;;;;;;;5068653;28;20086;-71
2022/07/12 04:33:53;;;;;;;8.30;5.53;;;;;;;;;;5071475;28;20069;-71
2022/07/12 04:36:19;;;;;;;12.60;5.22;;;;;;;;;;5068804;28;20028;-71
2022/07/12 04:38:46;;;;;;;8.05;4.97;;;;;;;;;;5068518;28;20389;-71
2022/07/12 04:41:12;;;;;;;9.45;4.57;;;;;;;;;;5068233;28;20029;-71
2022/07/12 04:43:38;;;;;;;10.00;4.65;;;;;;;;;;5068241;28;20013;-71
2022/07/12 04:46:08;;;;;;;7.75;4.78;;;;;;;;;;5070737;28;20024;-70
2022/07/12 04:48:34;;;;;;;10.68;5.22;;;;;;;;;;5070165;28;20465;-71
2022/07/12 04:51:01;;;;;;;7.97;4.68;;;;;;;;;;5068146;28;20473;-71
2022/07/12 04:53:27;;;;;;;6.68;4.70;;;;;;;;;;5068481;28;20027;-71
2022/07/12 04:55:57;;;;;;;9.68;5.05;;;;;;;;;;5068218;28;20012;-71
2022/07/12 04:58:23;;;;;;;6.40;4.72;;;;;;;;;;5052191;28;20435;-71
2022/07/12 05:00:50;;;;;;;6.32;5.45;;;;;;;;;;5071413;28;20035;-71
2022/07/12 05:03:17;;;;;;;6.82;4.50;;;;;;;;;;5068338;28;20041;-71
2022/07/12 05:05:43;;;;;;;11.40;5.38;;;;;;;;;;5068070;28;20024;-71
2022/07/12 05:08:10;;;;;;;9.18;5.05;;;;;;;;;;5067554;28;20619;-71
2022/07/12 05:10:36;;;;;;;7.40;5.30;;;;;;;;;;5068116;28;20044;-71
2022/07/12 05:13:02;;;;;;;6.00;5.25;;;;;;;;;;5070128;28;20028;-70
2022/07/12 05:15:29;;;;;;;6.55;4.68;;;;;;;;;;5068909;28;20054;-72
2022/07/12 05:17:55;;;;;;;5.63;4.85;;;;;;;;;;5067922;28;20496;-71
2022/07/12 05:20:22;;;;;;;21.08;5.28;;;;;;;;;;5067911;28;20497;-71
2022/07/12 05:22:48;;;;;;;19.77;5.20;;;;;;;;;;5067907;28;20515;-71
2022/07/12 05:25:15;;;;;;;11.65;5.05;;;;;;;;;;5069115;28;20033;-71
2022/07/12 05:27:42;;;;;;;7.18;4.97;;;;;;;;;;5070504;28;20401;-71
2022/07/12 05:30:09;;;;;;;8.30;4.95;;;;;;;;;;5067726;28;20033;-71
2022/07/12 05:32:35;;;;;;;10.68;4.72;;;;;;;;;;5067773;28;20508;-71
2022/07/12 05:35:02;;;;;;;18.73;5.43;;;;;;;;;;5067717;28;20016;-71
2022/07/12 05:37:28;;;;;;;7.50;5.15;;;;;;;;;;5067966;28;20025;-72
2022/07/12 05:39:54;;;;;;;12.63;5.85;;;;;;;;;;5070593;28;20024;-72
2022/07/12 05:42:21;;;;;;;7.72;5.35;;;;;;;;;;5072002;28;20028;-72
2022/07/12 05:44:47;;;;;;;9.93;5.15;;;;;;;;;;5071175;28;20021;-72
2022/07/12 05:47:13;;;;;;;13.32;5.47;;;;;;;;;;5070779;28;20511;-71
2022/07/12 05:49:39;;;;;;;12.23;5.20;;;;;;;;;;5071433;28;20028;-71
2022/07/12 05:54:51;;;;;;;20.35;5.82;;;;;;;;;;5070420;28;20025;-71
2022/07/12 05:57:18;;;;;;;8.77;5.43;;;;;;;;;;5072681;28;20058;-70
2022/07/12 05:59:44;;;;;;;9.85;5.22;;;;;;;;;;5070782;28;20503;-71
2022/07/12 06:02:10;;;;;;;23.25;6.28;;;;;;;;;;5072173;28;20081;-71
2022/07/12 06:04:37;;;;;;;12.57;5.05;;;;;;;;;;5070976;28;20621;-71
2022/07/12 06:07:03;;;;;;;38.97;6.68;;;;;;;;;;5073081;28;20036;-71
2022/07/12 06:09:30;;;;;;;6.97;4.50;;;;;;;;;;5071269;28;20467;-71
2022/07/12 06:11:56;;;;;;;12.20;5.30;;;;;;;;;;5070612;28;20043;-71
2022/07/12 06:14:22;;;;;;;11.30;5.60;;;;;;;;;;5070554;28;20019;-71
2022/07/12 06:16:49;;;;;;;13.48;6.40;;;;;;;;;;5070733;28;20029;-72
2022/07/12 06:19:15;;;;;;;7.50;4.78;;;;;;;;;;5071940;28;20021;-72
2022/07/12 06:21:42;;;;;;;15.30;5.25;;;;;;;;;;5073263;28;20034;-71
2022/07/12 06:24:08;;;;;;;14.63;5.10;;;;;;;;;;5070254;28;20024;-71
2022/07/12 06:26:34;;;;;;;9.23;5.28;;;;;;;;;;5064038;28;20101;-71
2022/07/12 06:29:01;;;;;;;8.68;4.78;;;;;;;;;;5068786;28;20023;-70
2022/07/12 06:31:28;;;;;;;9.27;4.93;;;;;;;;;;5070275;28;20048;-72
2022/07/12 06:33:54;;;;;;;7.90;4.57;;;;;;;;;;5073302;28;20073;-72
2022/07/12 06:36:21;;;;;;;7.97;4.93;;;;;;;;;;5070556;28;20396;-71
2022/07/12 06:38:47;;;;;;;9.80;4.80;;;;;;;;;;5071295;28;20485;-71
2022/07/12 06:41:13;;;;;;;7.13;4.60;;;;;;;;;;5068440;28;20044;-72
2022/07/12 06:43:39;;;;;;;11.63;4.88;;;;;;;;;;5068635;28;20023;-72
2022/07/12 06:46:06;;;;;;;6.20;4.85;;;;;;;;;;5070841;28;20029;-72
2022/07/12 06:48:32;;;;;;;8.35;4.45;;;;;;;;;;5071143;28;20028;-72
2022/07/12 06:50:58;;;;;;;6.35;4.60;;;;;;;;;;5068245;28;20028;-72
2022/07/12 06:53:25;;;;;;;6.38;4.70;;;;;;;;;;5069421;28;20543;-72
2022/07/12 06:55:51;;;;;;;7.50;4.43;;;;;;;;;;5071133;28;20033;-72
2022/07/12 06:58:17;;;;;;;7.63;4.65;;;;;;;;;;5070013;28;20477;-71
2022/07/12 07:00:44;;;;;;;6.88;4.13;;;;;;;;;;5071127;28;20024;-72
2022/07/12 07:03:10;;;;;;;6.20;3.85;;;;;;;;;;5067440;28;20051;-72
2022/07/12 07:05:37;;;;;;;5.10;4.60;;;;;;;;;;5063988;28;20056;-72
2022/07/12 07:08:04;;;;;;;7.53;4.50;;;;;;;;;;5069232;28;20029;-72
2022/07/12 07:10:30;;;;;;;7.70;3.80;;;;;;;;;;5069195;28;20035;-72
2022/07/12 07:12:56;;;;;;;8.60;3.80;;;;;;;;;;5071780;28;20497;-72
2022/07/12 07:15:23;;;;;;;5.18;3.78;;;;;;;;;;5069981;28;20036;-72
2022/07/12 07:17:50;;;;;;;8.90;4.07;;;;;;;;;;5068955;28;20013;-72
2022/07/12 07:20:16;;;;;;;9.77;4.65;;;;;;;;;;5069302;28;20028;-72
2022/07/12 07:22:43;;;;;;;5.03;3.72;;;;;;;;;;5068972;28;20027;-72
2022/07/12 07:25:09;;;;;;;4.50;4.10;;;;;;;;;;5070677;28;20401;-72
2022/07/12 07:27:38;;;;;;;5.20;3.50;;;;;;;;;;5070598;28;20029;-72
2022/07/12 07:32:49;;;;;;;8.57;3.83;;;;;;;;;;5069163;28;20032;-72
2022/07/12 07:35:16;;;;;;;4.65;3.55;;;;;;;;;;5070852;28;20013;-72
2022/07/12 07:37:43;;;;;;;6.38;4.47;;;;;;;;;;5068631;28;20039;-72
2022/07/12 07:40:09;;;;;;;8.10;3.70;;;;;;;;;;5070616;28;20032;-72
2022/07/12 07:42:36;;;;;;;9.73;3.70;;;;;;;;;;5070571;28;20036;-72
2022/07/12 07:45:06;;;;;;;6.25;3.22;;;;;;;;;;5068981;28;20025;-73
2022/07/12 07:47:32;;;;;;;5.97;3.30;;;;;;;;;;5068937;28;20396;-72
2022/07/12 07:49:58;;;;;;;4.15;2.97;;;;;;;;;;5068715;28;20021;-71
2022/07/12 07:52:25;;;;;;;5.32;3.03;;;;;;;;;;5068222;28;20029;-72
2022/07/12 07:54:51;;;;;;;4.05;2.90;;;;;;;;;;5071775;28;20020;-72
2022/07/12 07:57:17;;;;;;;9.25;3.45;;;;;;;;;;5069200;28;20028;-72
2022/07/12 07:59:44;;;;;;;14.50;3.78;;;;;;;;;;5068504;28;20013;-72
2022/07/12 08:02:12;;;;;;;7.60;3.53;;;;;;;;;;5068522;28;20485;-72
2022/07/12 08:04:38;;;;;;;6.82;3.38;;;;;;;;;;5067996;28;20493;-72
2022/07/12 08:07:04;;;;;;;3.72;3.08;;;;;;;;;;5070550;28;20077;-72
2022/07/12 08:09:31;;;;;;;5.18;3.30;;;;;;;;;;5069582;28;20052;-72
2022/07/12 08:11:57;;;;;;;12.38;3.63;;;;;;;;;;5066807;28;20051;-72
2022/07/12 08:14:23;;;;;;;6.07;3.30;;;;;;;;;;5068416;28;20027;-72
2022/07/12 08:16:50;;;;;;;7.30;3.15;;;;;;;;;;5068496;28;20493;-72
2022/07/12 08:19:16;;;;;;;7.53;3.28;;;;;;;;;;5069092;28;20024;-72
2022/07/12 08:21:42;;;;;;;6.60;3.17;;;;;;;;;;5070957;28;20024;-72
2022/07/12 08:24:09;;;;;;;5.18;3.05;;;;;;;;;;5068042;28;20030;-72
2022/07/12 08:26:35;;;;;;;6.57;2.92;;;;;;;;;;5068226;28;20392;-72
2022/07/12 08:29:01;;;;;;;7.35;2.53;;;;;;;;;;5068518;28;20025;-72
2022/07/12 08:31:28;;;;;;;5.40;3.20;;;;;;;;;;5068380;28;20029;-72
2022/07/12 08:33:54;;;;;;;7.03;3.38;;;;;;;;;;5071296;28;20465;-72
2022/07/12 08:36:20;;;;;;;6.43;2.97;;;;;;;;;;5068641;28;20035;-72
2022/07/12 08:38:47;;;;;;;6.60;3.58;;;;;;;;;;5068691;28;20021;-72
2022/07/12 08:41:13;;;;;;;7.10;3.17;;;;;;;;;;5066705;28;20028;-72
2022/07/12 08:43:40;;;;;;;7.78;3.25;;;;;;;;;;5068287;28;20025;-73
2022/07/12 08:46:08;;;;;;;6.28;3.15;;;;;;;;;;5070934;28;20029;-72
2022/07/12 08:48:37;;;;;;;7.63;3.00;;;;;;;;;;5069435;28;20032;-72
2022/07/12 08:51:08;;;;;;;6.28;3.00;;;;;;;;;;5068144;28;20028;-72
2022/07/12 08:53:34;;;;;;;7.30;2.75;;;;;;;;;;5067937;28;20515;-72
2022/07/12 08:56:01;;;;;;;21.67;3.95;;;;;;;;;;5068223;28;20029;-72
2022/07/12 08:58:28;;;;;;;4.95;2.83;;;;;;;;;;5067446;28;20029;-72
2022/07/12 09:00:54;;;;;;;10.73;3.17;;;;;;;;;;5070832;28;20400;-72
2022/07/12 09:03:20;;;;;;;7.40;3.25;;;;;;;;;;5066959;28;20035;-72
2022/07/12 09:05:53;;;;;;;6.60;2.80;;;;;;;;;;5067353;28;20048;-72
2022/07/12 09:08:26;;;;;;;5.43;2.80;;;;;;;;;;5067671;28;20045;-70
2022/07/12 09:10:57;;;;;;;7.35;2.80;;;;;;;;;;5069473;28;20028;-71
2022/07/12 09:13:42;;;;;;;10.55;2.80;;;;;;;;;;5052324;28;20046;-72
2022/07/12 09:16:13;;;;;;;8.93;2.58;;;;;;;;;;5073352;28;20490;-72
2022/07/12 09:18:39;;;;;;;;;;;;;;;;;;5073205;28;20029;-72
2022/07/12 09:21:05;;;;;;;7.25;2.50;;;;;;;;;;5070563;28;20377;-72
2022/07/12 09:23:31;;;;;;;8.45;2.30;;;;;;;;;;5071321;28;20036;-72
2022/07/12 09:25:58;;;;;;;6.78;2.10;;;;;;;;;;5072911;28;20017;-72
2022/07/12 09:28:25;;;;;;;5.15;2.20;;;;;;;;;;5071658;28;20036;-73
2022/07/12 09:30:54;;;;;;;5.40;1.85;;;;;;;;;;5074824;28;20025;-71
2022/07/12 09:36:12;;;;;;;4.65;2.28;;;;;;;;;;5071174;28;20032;-72
2022/07/12 09:38:53;;;;;;;5.45;2.25;;;;;;;;;;5070604;28;20024;-72
2022/07/12 09:41:20;;;;;;;8.70;5.10;;;;;;;;;;5070925;28;20515;-72
2022/07/12 09:43:47;;;;;;;9.25;2.50;;;;;;;;;;5071644;28;20019;-72
2022/07/12 09:46:17;;;;;;;8.35;2.70;;;;;;;;;;5066004;28;20416;-72
2022/07/12 09:48:44;;;;;;;3.90;2.00;;;;;;;;;;5074023;28;20024;-70
2022/07/12 09:51:13;;;;;;;5.50;2.30;;;;;;;;;;5061612;28;20102;-70
2022/07/12 09:53:46;;;;;;;7.53;2.03;;;;;;;;;;5064703;28;20034;-73
2022/07/12 09:56:13;;;;;;;7.75;2.60;;;;;;;;;;5070728;28;20031;-72
2022/07/12 09:58:57;;;;;;;5.72;2.05;;;;;;;;;;5071133;28;20013;-72
2022/07/12 10:01:24;;;;;;;6.32;2.25;;;;;;;;;;5053984;28;20027;-72
2022/07/12 10:03:54;;;;;;;9.02;2.10;;;;;;;;;;5070365;28;20034;-72
2022/07/12 10:06:25;;;;;;;8.23;2.30;;;;;;;;;;5071155;28;20028;-72
2022/07/12 10:08:52;;;;;;;6.38;1.67;;;;;;;;;;5070553;28;20047;-72
2022/07/12 10:11:22;;;;;;;7.82;1.80;;;;;;;;;;5070482;28;20028;-72
2022/07/12 10:13:48;;;;;;;6.50;2.15;;;;;;;;;;5070741;28;20389;-72
2022/07/12 10:16:17;;;;;;;3.72;1.70;;;;;;;;;;5071372;28;20063;-72
2022/07/12 10:18:44;;;;;;;2.00;1.70;;;;;;;;;;5073373;28;20054;-72
2022/07/12 10:21:21;;;;;;;5.13;1.83;;;;;;;;;;5070147;28;20030;-72
2022/07/12 10:23:48;;;;;;;3.67;1.70;;;;;;;;;;5069891;28;20297;-72
2022/07/12 10:26:14;;;;;;;3.78;1.70;;;;;;;;;;5070018;28;20027;-72
2022/07/12 10:28:59;;;;;;;4.40;1.70;;;;;;;;;;5070469;28;20029;-72
2022/07/12 10:31:28;;;;;;;5.80;1.70;;;;;;;;;;5052963;28;20029;-72
2022/07/12 10:34:08;;;;;;;4.93;1.83;;;;;;;;;;5073202;28;20032;-72
2022/07/12 10:36:58;;;;;;;3.42;1.50;;;;;;;;;;5071593;28;20378;-72
2022/07/12 10:39:25;;;;;;;7.85;1.88;;;;;;;;;;5070732;28;20098;-72
2022/07/12 10:42:06;;;;;;;2.58;1.42;;;;;;;;;;5069639;28;20017;-72
2022/07/12 10:44:34;;;;;;;3.17;1.38;;;;;;;;;;5069764;28;20031;-72
2022/07/12 10:47:01;;;;;;;8.52;1.67;;;;;;;;;;5069724;28;20507;-72
2022/07/12 10:49:28;;;;;;;4.35;1.55;;;;;;;;;;5069748;28;20029;-73
2022/07/12 10:52:10;;;;;;;4.25;1.55;;;;;;;;;;5072750;28;20035;-72
2022/07/12 10:54:40;;;;;;;4.63;1.67;;;;;;;;;;5071738;28;20031;-72
2022/07/12 10:57:06;;;;;;;;;;;;;;;;;;5070130;28;20017;-72
2022/07/12 10:59:34;;;;;;;2.30;1.60;;;;;;;;;;5069002;28;20380;-72
2022/07/12 11:02:01;;;;;;;4.97;1.60;;;;;;;;;;5069444;28;20023;-72
2022/07/12 11:04:28;;;;;;;5.35;1.80;;;;;;;;;;5069565;28;20021;-72
2022/07/12 11:06:58;;;;;;;1.40;1.30;;;;;;;;;;5072568;28;20405;-72
2022/07/12 11:09:26;;;;;;;5.38;1.60;;;;;;;;;;5070290;28;20066;-71
2022/07/12 11:11:53;;;;;;;5.10;1.45;;;;;;;;;;5069162;28;20024;-72
2022/07/12 11:14:22;;;;;;;3.63;1.42;;;;;;;;;;5068924;28;20025;-72
2022/07/12 11:16:51;;;;;;;8.00;1.50;;;;;;;;;;5069426;28;20477;-72
2022/07/12 11:19:22;;;;;;;7.40;1.53;;;;;;;;;;5070118;28;20029;-72
2022/07/12 11:21:54;;;;;;;3.45;1.60;;;;;;;;;;5088147;28;20515;-72
2022/07/12 11:24:22;;;;;;;3.38;1.63;;;;;;;;;;5069362;28;20438;-72
2022/07/12 11:26:49;;;;;;;5.13;1.90;;;;;;;;;;5069061;28;20020;-72
2022/07/12 11:29:15;;;;;;;3.13;1.65;;;;;;;;;;5069073;28;20024;-72
2022/07/12 11:31:42;;;;;;;3.97;1.60;;;;;;;;;;5068940;28;20029;-72
2022/07/12 11:34:19;;;;;;;5.95;1.55;;;;;;;;;;5071607;28;20031;-73
2022/07/12 11:36:46;;;;;;;2.35;1.42;;;;;;;;;;5072232;28;20369;-72
2022/07/12 11:39:12;;;;;;;1.60;1.30;;;;;;;;;;5067935;28;20031;-73
2022/07/12 11:41:38;;;;;;;3.95;1.52;;;;;;;;;;5066353;28;20034;-72
2022/07/12 11:44:05;;;;;;;4.53;1.80;;;;;;;;;;5068294;28;20015;-72
2022/07/12 11:46:31;;;;;;;4.88;1.83;;;;;;;;;;5068914;28;20021;-72
2022/07/12 11:48:57;;;;;;;3.72;1.63;;;;;;;;;;5071636;28;20025;-72
2022/07/12 11:51:27;;;;;;;1.65;1.50;;;;;;;;;;5069525;28;20040;-72
2022/07/12 11:53:53;;;;;;;4.55;1.42;;;;;;;;;;5068577;28;20026;-72
2022/07/12 11:56:29;;;;;;;5.70;1.58;;;;;;;;;;5068361;28;20097;-72
2022/07/12 11:58:56;;;;;;;5.40;1.77;;;;;;;;;;5068106;28;20046;-73
2022/07/12 12:01:25;;;;;;;3.22;1.80;;;;;;;;;;5052712;28;20558;-73
2022/07/12 12:03:52;;;;;;;6.22;1.48;;;;;;;;;;5068379;28;20553;-72
2022/07/12 12:06:18;;;;;;;6.78;1.48;;;;;;;;;;5068857;28;20039;-72
2022/07/12 12:08:45;;;;;;;7.68;1.80;;;;;;;;;;5068245;28;20082;-73
2022/07/12 12:11:11;;;;;;;2.92;1.13;;;;;;;;;;5068278;28;20051;-73
2022/07/12 12:13:38;;;;;;;4.22;1.30;;;;;;;;;;5068143;28;20035;-72
2022/07/12 12:16:08;;;;;;;2.92;1.30;;;;;;;;;;5070461;28;20032;-72
2022/07/12 12:18:42;;;;;;;1.55;1.30;;;;;;;;;;5069602;28;20501;-72
2022/07/12 12:21:09;;;;;;;2.95;1.30;;;;;;;;;;5068039;28;20016;-72
2022/07/12 12:23:36;;;;;;;8.73;1.40;;;;;;;;;;5068289;28;20028;-72
2022/07/12 12:26:13;;;;;;;4.55;1.33;;;;;;;;;;5067604;28;20020;-72
2022/07/12 12:28:57;;;;;;;2.15;1.65;;;;;;;;;;5068182;28;20383;-73
2022/07/12 12:31:24;;;;;;;2.70;1.40;;;;;;;;;;5052512;28;20401;-73
2022/07/12 12:33:56;;;;;;;1.63;1.17;;;;;;;;;;5067754;28;20024;-72
2022/07/12 12:36:22;;;;;;;1.55;1.23;;;;;;;;;;5068688;28;20051;-73
2022/07/12 12:38:53;;;;;;;1.30;1.00;;;;;;;;;;5068037;28;20515;-72
2022/07/12 12:41:22;;;;;;;2.17;1.63;;;;;;;;;;5067539;28;20028;-73
2022/07/12 12:43:49;;;;;;;1.00;1.00;;;;;;;;;;5068027;28;20497;-72
2022/07/12 12:46:15;;;;;;;1.10;0.90;;;;;;;;;;5068635;28;20043;-72
2022/07/12 12:48:48;;;;;;;3.47;1.10;;;;;;;;;;5070101;28;20036;-72
2022/07/12 12:51:15;;;;;;;3.13;1.40;;;;;;;;;;5070482;28;20036;-73
2022/07/12 12:53:42;;;;;;;3.35;1.60;;;;;;;;;;5071624;28;20389;-73
2022/07/12 12:56:09;;;;;;;2.75;1.38;;;;;;;;;;5071275;28;20028;-73
2022/07/12 12:58:36;;;;;;;2.78;1.23;;;;;;;;;;5074061;28;20474;-72
2022/07/12 13:01:04;;;;;;;2.78;1.27;;;;;;;;;;5073843;28;20035;-73
2022/07/12 13:03:30;;;;;;;1.63;1.15;;;;;;;;;;5072758;28;20035;-72
2022/07/12 13:05:57;;;;;;;1.98;1.17;;;;;;;;;;5074058;28;20021;-72
2022/07/12 13:08:24;;;;;;;3.05;1.00;;;;;;;;;;5071058;28;20029;-73
2022/07/12 13:11:18;;;;;;;2.35;1.10;;;;;;;;;;5065408;28;20413;-72
2022/07/12 13:13:38;;;;;;;3.63;1.30;;;;;;;;;;5056550;28;20040;-72
2022/07/12 13:16:04;;;;;;;1.10;0.90;;;;;;;;;;5070166;28;20031;-73
2022/07/12 13:18:31;;;;;;;1.73;0.85;;;;;;;;;;5072230;28;20033;-72
2022/07/12 13:20:57;;;;;;;2.65;0.90;;;;;;;;;;5071297;28;20558;-72
2022/07/12 13:23:23;;;;;;;1.63;1.00;;;;;;;;;;5070516;28;20473;-73
2022/07/12 13:25:50;;;;;;;2.75;1.00;;;;;;;;;;5071321;28;20038;-73
2022/07/12 13:28:16;;;;;;;1.73;1.10;;;;;;;;;;5071988;28;20486;-72
2022/07/12 13:30:42;;;;;;;2.53;0.95;;;;;;;;;;5073592;28;20040;-72
2022/07/12 13:33:09;;;;;;;2.53;1.10;;;;;;;;;;5069916;28;20399;-73
2022/07/12 13:35:35;;;;;;;2.38;1.13;;;;;;;;;;5070804;28;20012;-72
2022/07/12 13:38:01;;;;;;;2.33;0.85;;;;;;;;;;5070530;28;20020;-72
2022/07/12 13:40:28;;;;;;;1.60;1.05;;;;;;;;;;5070752;28;20023;-72
2022/07/12 13:42:54;;;;;;;4.00;0.90;;;;;;;;;;5072831;28;20028;-73
2022/07/12 13:45:24;;;;;;;3.25;1.13;;;;;;;;;;5071615;28;20025;-73
2022/07/12 13:47:50;;;;;;;1.70;1.15;;;;;;;;;;5070932;28;20032;-73
2022/07/12 13:50:18;;;;;;;3.10;1.10;;;;;;;;;;5070772;28;20439;-72
2022/07/12 13:52:45;;;;;;;3.53;1.10;;;;;;;;;;5070536;28;20025;-72
2022/07/12 13:55:12;;;;;;;1.60;0.80;;;;;;;;;;5062297;28;20379;-72
2022/07/12 13:57:39;;;;;;;2.10;0.98;;;;;;;;;;5072641;28;20037;-72
2022/07/12 14:00:13;;;;;;;4.68;1.00;;;;;;;;;;5070652;28;20119;-72
2022/07/12 14:02:40;;;;;;;1.75;1.05;;;;;;;;;;5069944;28;20031;-72
2022/07/12 14:05:07;;;;;;;2.13;1.02;;;;;;;;;;5070544;28;20752;-73
2022/07/12 14:07:34;;;;;;;1.15;0.90;;;;;;;;;;5070059;28;20039;-73
2022/07/12 14:10:01;;;;;;;6.97;1.10;;;;;;;;;;5072552;28;20031;-73
2022/07/12 14:12:27;;;;;;;3.83;1.00;;;;;;;;;;5071425;28;20040;-73
2022/07/12 14:17:42;;;;;;;2.50;0.98;;;;;;;;;;5018264;28;20414;-72
2022/07/12 14:20:09;;;;;;;3.42;0.90;;;;;;;;;;5013050;28;20018;-72
2022/07/12 14:22:36;;;;;;;1.40;1.10;;;;;;;;;;5013203;28;20024;-71
2022/07/12 14:25:06;;;;;;;1.52;1.08;;;;;;;;;;5013234;28;20030;-72
2022/07/12 14:27:33;;;;;;;3.60;1.10;;;;;;;;;;5011407;28;20033;-72
2022/07/12 14:29:59;;;;;;;1.63;1.10;;;;;;;;;;5009134;28;20040;-73
2022/07/12 14:32:25;;;;;;;4.30;1.00;;;;;;;;;;5012839;28;20045;-72
2022/07/12 14:34:52;;;;;;;2.25;1.10;;;;;;;;;;5012696;28;20025;-73
2022/07/12 14:37:18;;;;;;;3.65;1.00;;;;;;;;;;5012844;28;20037;-72
2022/07/12 14:39:45;;;;;;;3.15;1.10;;;;;;;;;;5012945;28;20032;-72
2022/07/12 14:42:11;;;;;;;8.55;1.30;;;;;;;;;;5012426;28;20491;-72
2022/07/12 14:44:37;;;;;;;7.95;1.23;;;;;;;;;;5012593;28;20375;-72
2022/07/12 14:47:04;;;;;;;7.95;1.50;;;;;;;;;;5013042;28;20014;-73
2022/07/12 14:49:30;;;;;;;5.40;1.20;;;;;;;;;;5012942;28;20026;-77
2022/07/12 14:51:57;;;;;;;1.80;1.00;;;;;;;;;;5012754;28;20045;-72
2022/07/12 14:54:23;;;;;;;1.65;0.90;;;;;;;;;;5012214;28;20338;-73
2022/07/12 14:56:50;;;;;;;2.15;1.00;;;;;;;;;;5012796;28;20030;-72